Danville, VA

12:51 PM EDT on April 19, 2015 (GMT -0400)
VADOT | | Change Station
CLOSE
Current Station
Personal Weather Station
Location: Danville, VA
Elevation: 496 ft
Nearby Weather Stations

Elev 496 ft 36.58 °N, 79.36 °W | Updated 44 minutes ago

Overcast
Overcast
69 °F
Feels Like 69 °F
N
4
Wind Variable Wind from ENE
Gusts 17.0 mph

Today
High -- | Low -- °F
--% Chance of Precip.
Yesterday
High -- | Low -- °F
Precip. -- in
6:38 AM 7:55 PM
New Moon, 1% visible
Pressure 29.98 in
Visibility 10.0 miles
Clouds Few 1900 ft
Mostly Cloudy 3200 ft
Overcast 6500 ft
Dew Point 64 °F
Humidity 85%
Rainfall in
Snow Depth Not available.
UV 3 out of 12
Pollen 3.00 out of 12
Air Quality Not available.
Flu Activity Local Activity
SPECI KDAN 191624Z AUTO 08010G20KT 10SM FEW019 BKN032 OVC065 21/15 A2998 RMK AO2 T02060150

More Conditions Fewer Conditions

Pressure 29.98 in
Visibility 10.0 miles
Clouds Few 1900 ft
Mostly Cloudy 3200 ft
Overcast 6500 ft
Dew Point 64 °F
Humidity 85%
Rainfall in
Snow Depth Not available.
UV 3 out of 12
Pollen 3.00 out of 12
Air Quality Not available.
Flu Activity Local Activity
SPECI KDAN 191624Z AUTO 08010G20KT 10SM FEW019 BKN032 OVC065 21/15 A2998 RMK AO2 T02060150

More Conditions Fewer Conditions

10-Day Weather Forecast

Almanac

Astronomy

Apr. 19, 2015 Rise Set
Actual Time
Civil Twilight
Nautical Twilight
Astronomical Twilight
Moon
Length of Visible Light
Length of Day
Tomorrow will be .
, % of the Moon is Illuminated

Today's Extremes

State Highs State Lows

Community

WunderPhotos

Upload Photos

1,814,850 photos uploaded!

WunderBlogs® & News

Nearby

Air Quality

  Air Quality AQ Index Pollutant
Not available.

Snow Depth

Station Depth Elevation

Earthquake Activity

City Distance Mag. Time & Date
Minimum magnitude displayed is 2.5.

Coastal Water Temperatures

Place Temperature

Stations

Nearby Weather Stations

Station Location Temp. Windchill Dew Point Humidity Wind Precip. Elev Updated Type